Flight Track Log - Related Links

Times and Time Zones

All times are in EDT time to prevent confusion due to time zone crossing. See the SWA59 flight status page for this flight to view local times or setup timezone preferences in your user account.

Time Position Orientation Groundspeed Altitude Reporting Facility
EDT Latitude Longitude Course Direction KTS MPH feet Rate Location/Type
Fri 05:11:57 PM 39.8833 -75.2167 67° East 145 167 800  Level Philadelphia TRACON
Fri 05:12:57 PM 39.9000 -75.1667 67° East 208 239 2,700 2,381 Climbing Philadelphia TRACON
Fri 05:14:03 PM 39.9500 -75.1167 37° Northeast 248 285 5,800 2,126 Climbing Philadelphia TRACON
Fri 05:16:23 PM 39.9844 -75.3114 283° West 260 299 10,000 1,266 Climbing New York Center
Fri 05:17:22 PM 39.9631 -75.4347 257° West 329 379 10,000 706 Level New York Center
Fri 05:18:22 PM 39.9397 -75.5442 254° West 346 398 11,400 2,331 Climbing New York Center
Fri 05:19:23 PM 39.9175 -75.6833 258° West 363 418 14,700 2,949 Climbing New York Center
Fri 05:20:20 PM 39.9142 -75.8075 268° West 375 432 17,200 2,542 Climbing New York Center
Fri 05:21:21 PM 39.9117 -75.9644 269° West 394 453 19,700 2,508 Climbing New York Center
Fri 05:22:22 PM 39.9133 -76.1133 271° West 404 465 22,300 2,281 Climbing New York Center
Fri 05:23:22 PM 39.9092 -76.2483 268° West 404 465 24,300 2,050 Climbing New York Center
Fri 05:24:22 PM 39.9122 -76.4031 272° West 415 478 26,400 1,983 Climbing New York Center
Fri 05:25:20 PM 39.9006 -76.5592 264° West 427 491 28,200 1,765 Climbing New York Center
Fri 05:26:21 PM 39.8925 -76.7208 266° West 440 506 29,900 1,785 Climbing New York Center
Fri 05:27:21 PM 39.8942 -76.8942 271° West 440 506 31,800 1,983 Climbing New York Center
Fri 05:28:22 PM 39.9139 -77.0314 281° West 440 506 33,900 1,770 Climbing New York Center
Fri 05:29:23 PM 39.9228 -77.1808 274° West 434 499 35,400 1,041 Climbing New York Center
Fri 05:30:23 PM 39.9350 -77.3339 276° West 429 494 36,000 808 Climbing New York Center
Fri 05:32:36 PM 39.9556 -77.6931 274° West 437 503 38,000 622 Climbing Cleveland Center
Fri 05:33:36 PM 39.9592 -77.8447 272° West 431 496 38,000  Level Cleveland Center
Fri 05:34:36 PM 39.9628 -77.9936 272° West 418 481 38,000  Level Cleveland Center
Fri 05:35:36 PM 39.9639 -78.1372 271° West 413 475 38,000  Level Cleveland Center
Fri 05:36:36 PM 39.9664 -78.2589 272° West 413 475 38,000  Level Cleveland Center
Fri 05:37:36 PM 39.9633 -78.4189 269° West 418 481 38,000  Level Cleveland Center
Fri 05:38:36 PM 39.9658 -78.5650 271° West 413 475 38,000  Level Cleveland Center
Fri 05:39:36 PM 39.9683 -78.7114 271° West 413 475 38,000  Level Cleveland Center
Fri 05:40:36 PM 39.9686 -78.8575 270° West 408 470 38,000  Level Cleveland Center
Fri 05:41:36 PM 39.9750 -79.0064 273° West 403 464 38,000  Level Cleveland Center
Fri 05:42:36 PM 39.9769 -79.1553 271° West 403 464 38,000  Level Cleveland Center
Fri 05:43:36 PM 39.9786 -79.3044 271° West 403 464 38,000  Level Cleveland Center
Fri 05:44:36 PM 39.9783 -79.4533 270° West 408 470 38,000  Level Cleveland Center
Fri 05:45:36 PM 39.9794 -79.5942 271° West 408 470 38,000  Level Cleveland Center
Fri 05:46:36 PM 39.9808 -79.7431 271° West 408 470 38,000  Level Cleveland Center
Fri 05:47:36 PM 39.9817 -79.8922 270° West 408 470 38,000  Level Cleveland Center
Fri 05:48:36 PM 39.9825 -80.0386 270° West 408 470 38,000  Level Cleveland Center
Fri 05:49:36 PM 39.9811 -80.1875 269° West 403 464 38,000  Level Cleveland Center
Fri 05:50:36 PM 39.9836 -80.3311 271° West 403 464 38,000  Level Cleveland Center
Fri 05:51:36 PM 39.9817 -80.4828 269° West 403 464 38,000  Level Cleveland Center
Fri 05:52:36 PM 39.9817 -80.6319 270° West 408 470 38,000  Level Cleveland Center
Fri 05:54:51 PM 39.9764 -80.9867 269° West 423 487 38,000  Level Indianapolis Center
Fri 05:55:52 PM 39.9753 -81.1414 270° West 423 487 38,000  Level Indianapolis Center
Fri 05:56:54 PM 39.9733 -81.2967 269° West 424 488 38,000  Level Indianapolis Center
Fri 05:57:56 PM 39.9719 -81.4553 269° West 430 495 38,000  Level Indianapolis Center
Fri 05:58:58 PM 39.9706 -81.6119 269° West 429 494 38,000  Level Indianapolis Center
Fri 06:00:00 PM 39.9678 -81.7722 269° West 430 495 38,000  Level Indianapolis Center
Fri 06:01:01 PM 39.9658 -81.9289 269° West 428 493 38,000  Level Indianapolis Center
Fri 06:02:03 PM 39.9636 -82.0867 269° West 431 496 38,000  Level Indianapolis Center
Fri 06:03:05 PM 39.9606 -82.2433 269° West 431 496 38,000  Level Indianapolis Center
Fri 06:04:07 PM 39.9572 -82.4286 269° West 433 498 38,000  Level Indianapolis Center
Fri 06:05:08 PM 39.9553 -82.5867 269° West 434 499 38,000  Level Indianapolis Center
Fri 06:06:10 PM 39.9511 -82.7439 268° West 432 497 38,000  Level Indianapolis Center
Fri 06:07:12 PM 39.9475 -82.9031 268° West 435 501 38,000  Level Indianapolis Center
Fri 06:08:14 PM 39.9442 -83.0639 269° West 433 498 38,000  Level Indianapolis Center
Fri 06:09:16 PM 39.9400 -83.2206 268° West 433 498 38,000  Level Indianapolis Center
Fri 06:10:18 PM 39.9356 -83.3781 268° West 435 501 38,000  Level Indianapolis Center
Fri 06:11:19 PM 39.9308 -83.5356 268° West 435 501 38,000  Level Indianapolis Center
Fri 06:12:21 PM 39.9250 -83.7111 268° West 434 499 38,000  Level Indianapolis Center
Fri 06:13:23 PM 39.9208 -83.8603 268° West 430 495 38,000  Level Indianapolis Center
Fri 06:14:25 PM 39.9153 -84.0161 267° West 431 496 38,000  Level Indianapolis Center
Fri 06:15:28 PM 39.9106 -84.1803 268° West 431 496 38,000  Level Indianapolis Center
Fri 06:16:29 PM 39.9036 -84.3617 267° West 429 494 38,000  Level Indianapolis Center
Fri 06:17:31 PM 39.8989 -84.5181 268° West 429 494 38,000  Level Indianapolis Center
Fri 06:18:33 PM 39.8919 -84.6756 267° West 432 497 38,000  Level Indianapolis Center
Fri 06:19:35 PM 39.8861 -84.8333 267° West 434 499 38,000  Level Indianapolis Center
Fri 06:20:38 PM 39.8794 -84.9786 267° West 438 504 38,000  Level Indianapolis Center
Fri 06:21:40 PM 39.8714 -85.1675 267° West 437 503 38,000  Level Indianapolis Center
Fri 06:22:42 PM 39.8653 -85.3256 267° West 439 505 38,000  Level Indianapolis Center
Fri 06:23:44 PM 39.8589 -85.4833 267° West 438 504 38,000  Level Indianapolis Center
Fri 06:24:46 PM 39.8514 -85.6411 267° West 439 505 38,000  Level Indianapolis Center
Fri 06:25:48 PM 39.8439 -85.7981 266° West 437 503 38,000  Level Indianapolis Center
Fri 06:26:50 PM 39.8344 -85.9589 266° West 441 507 38,000  Level Indianapolis Center
Fri 06:27:52 PM 39.8261 -86.1494 267° West 440 506 38,000  Level Indianapolis Center
Fri 06:28:54 PM 39.8167 -86.3089 266° West 441 507 38,000  Level Indianapolis Center
Fri 06:29:56 PM 39.7906 -86.4636 258° West 438 504 38,000  Level Indianapolis Center
Fri 06:30:58 PM 39.7517 -86.6253 253° West 434 499 38,000  Level Indianapolis Center
Fri 06:32:00 PM 39.7147 -86.7739 252° West 434 499 38,000  Level Indianapolis Center
Fri 06:33:02 PM 39.6778 -86.9222 252° West 435 501 38,000 -435 Level Indianapolis Center
Fri 06:34:04 PM 39.6414 -87.0700 252° West 433 498 37,100 -871 Descending Indianapolis Center
Fri 06:35:06 PM 39.6036 -87.2181 252° West 435 501 36,200 -1,016 Descending Indianapolis Center
Fri 06:36:08 PM 39.5581 -87.3986 252° West 440 506 35,000 -1,016 Descending Indianapolis Center
Fri 06:37:10 PM 39.5200 -87.5511 252° West 446 513 34,100 -919 Descending Indianapolis Center
Fri 06:38:12 PM 39.4803 -87.7006 251° West 444 511 33,100 -919 Descending Indianapolis Center
Fri 06:39:14 PM 39.4422 -87.8522 252° West 444 511 32,200 -919 Descending Indianapolis Center
Fri 06:40:16 PM 39.4019 -88.0050 251° West 449 517 31,200 -1,065 Descending Indianapolis Center
Fri 06:41:18 PM 39.3569 -88.1839 252° West 440 506 30,000 -1,065 Descending Indianapolis Center
Fri 06:42:20 PM 39.3194 -88.3272 251° West 435 501 29,000 -968 Descending Indianapolis Center
Fri 06:43:22 PM 39.2792 -88.4742 251° West 434 499 28,000 -968 Descending Indianapolis Center
Fri 06:44:24 PM 39.2406 -88.6183 251° West 427 491 27,000 -1,306 Descending Indianapolis Center
Fri 06:45:26 PM 39.2028 -88.7608 251° West 422 486 25,300 -1,952 Descending Indianapolis Center
Fri 06:46:30 PM 39.1619 -88.9103 251° West 411 473 22,900 -1,952 Descending Kansas City Center
Fri 06:47:32 PM 39.1217 -89.0586 251° West 387 445 21,200 -1,694 Descending Kansas City Center
Fri 06:48:34 PM 39.0875 -89.1819 250° West 342 394 19,400 -2,081 Descending Kansas City Center
Fri 06:49:36 PM 39.0622 -89.2992 255° West 341 392 16,900 -2,274 Descending Kansas City Center
Fri 06:50:38 PM 39.0325 -89.4264 253° West 345 397 14,700 -2,032 Descending Kansas City Center
Fri 06:51:40 PM 39.0064 -89.5483 255° West 354 407 12,700 -1,742 Descending Kansas City Center
Fri 06:52:42 PM 38.9553 -89.6461 236° Southwest 328 377 11,100 -1,210 Descending Kansas City Center
Fri 06:53:44 PM 38.9028 -89.7228 229° Southwest 316 364 10,200 -1,065 Descending Kansas City Center
Fri 06:54:46 PM 38.8503 -89.7978 228° Southwest 301 346 8,900 -1,065 Descending Kansas City Center
Fri 06:55:48 PM 38.7814 -89.8683 219° Southwest 276 318 8,000 -435 Descending Kansas City Center
Fri 06:56:50 PM 38.7400 -89.9094 218° Southwest 223 257 8,000  Level Kansas City Center
Fri 06:57:52 PM 38.6978 -89.9200 191° South 178 205 8,000  Level Kansas City Center
Fri 06:58:54 PM 38.6578 -89.9322 193° South 159 183 8,000  Level Kansas City Center
Fri 06:59:56 PM 38.6172 -89.9439 193° South 152 175 8,000 -432 Level Kansas City Center
Fri 07:00:59 PM 38.5758 -89.9544 191° South 151 174 7,100 -960 Descending Kansas City Center
Fri 07:02:01 PM 38.5697 -90.0203 263° West 201 231 6,000 -871 Descending Kansas City Center
Fri 07:03:03 PM 38.6119 -90.0808 312° West 220 253 5,300 -774 Descending Kansas City Center
Fri 07:04:05 PM 38.6447 -90.1497 301° West 226 260 4,400 -968 Descending Kansas City Center
Fri 07:05:07 PM 38.6753 -90.2117 302° West 219 252 3,300 -1,065 Descending Kansas City Center
Fri 07:06:09 PM 38.7000 -90.2622 302° West 192 221 2,200 -1,016 Descending Kansas City Center
Fri 07:07:11 PM 38.7233 -90.3078 303° West 148 170 1,200 -774 Descending Kansas City Center
Fri 07:08:13 PM 38.7439 -90.3486 303° West 137 158 600 -581 Descending Kansas City Center

Login

Don't have an account? Register now (free) for customized features, flight alerts, and more!